Alderson, Oklahoma
Current Conditions -  °F | °C
As of 5:53 PM on Friday 31 Oct 2014 (Local Time) from KMLC Reporting Station
Light Rain Light Rain  
Wind Chill: 12°   Ceiling: Unl
Heat Index: 12°   Visibility: 10mi
Dew Point: -2°   Wind: 10mph
Humidity: 37%   Direction: 10°N
Pressure: 30.37"   Gusts: NA
Location:  34.9°N, 95.69°W
Report Text: KMLC 312253Z AUTO 01009KT 10SM -RA CLR 12/M02 A3037 RMK AO2 SLP282 P0000 T01221022
Loading
Personal Weather Stations






























Interactive Weather Map
Tropical Storm Tracking
New forecast layout! Learn more

10-Day Weather Forecast

Advertisements
Track Severe Weather on mobile